sensor_id;sensor_type;location;lat;lon;timestamp;pressure;altitude;pressure_sealevel;temperature;humidity
84267;BME280;74414;51.098;13.716;2024-03-08T00:01:39;100537.59;;;0.41;70.67
84267;BME280;74414;51.098;13.716;2024-03-08T00:04:04;100538.28;;;0.28;70.97
84267;BME280;74414;51.098;13.716;2024-03-08T00:06:31;100540.84;;;0.19;71.05
84267;BME280;74414;51.098;13.716;2024-03-08T00:08:57;100532.44;;;0.11;71.70
84267;BME280;74414;51.098;13.716;2024-03-08T00:11:22;100527.09;;;0.00;72.29
84267;BME280;74414;51.098;13.716;2024-03-08T00:13:54;100519.53;;;-0.08;72.97
84267;BME280;74414;51.098;13.716;2024-03-08T00:16:19;100524.72;;;-0.11;72.56
84267;BME280;74414;51.098;13.716;2024-03-08T00:18:45;100521.00;;;-0.20;72.78
84267;BME280;74414;51.098;13.716;2024-03-08T00:21:10;100522.19;;;-0.31;72.74
84267;BME280;74414;51.098;13.716;2024-03-08T00:23:37;100529.81;;;-0.38;72.82
84267;BME280;74414;51.098;13.716;2024-03-08T00:26:03;100529.88;;;-0.43;73.41
84267;BME280;74414;51.098;13.716;2024-03-08T00:28:29;100528.22;;;-0.44;73.49
84267;BME280;74414;51.098;13.716;2024-03-08T00:30:56;100527.69;;;-0.46;73.69
84267;BME280;74414;51.098;13.716;2024-03-08T00:33:21;100525.84;;;-0.51;73.77
84267;BME280;74414;51.098;13.716;2024-03-08T00:35:46;100528.31;;;-0.54;74.85
84267;BME280;74414;51.098;13.716;2024-03-08T00:38:12;100529.97;;;-0.58;74.32
84267;BME280;74414;51.098;13.716;2024-03-08T00:40:38;100525.13;;;-0.66;74.56
84267;BME280;74414;51.098;13.716;2024-03-08T00:43:03;100523.47;;;-0.67;74.68
84267;BME280;74414;51.098;13.716;2024-03-08T00:45:29;100528.44;;;-0.74;74.91
84267;BME280;74414;51.098;13.716;2024-03-08T00:47:54;100530.91;;;-0.78;75.52
84267;BME280;74414;51.098;13.716;2024-03-08T00:50:20;100524.38;;;-0.82;75.88
84267;BME280;74414;51.098;13.716;2024-03-08T00:52:45;100525.22;;;-0.86;75.68
84267;BME280;74414;51.098;13.716;2024-03-08T00:55:11;100523.09;;;-0.95;75.71
84267;BME280;74414;51.098;13.716;2024-03-08T00:57:37;100513.59;;;-1.02;75.74
84267;BME280;74414;51.098;13.716;2024-03-08T01:00:05;100510.88;;;-1.02;76.54
84267;BME280;74414;51.098;13.716;2024-03-08T01:02:32;100504.13;;;-1.05;76.74
84267;BME280;74414;51.098;13.716;2024-03-08T01:05:00;100511.50;;;-1.10;76.94
84267;BME280;74414;51.098;13.716;2024-03-08T01:07:26;100518.81;;;-1.16;77.15
84267;BME280;74414;51.098;13.716;2024-03-08T01:09:51;100516.09;;;-1.16;76.91
84267;BME280;74414;51.098;13.716;2024-03-08T01:12:16;100512.03;;;-1.13;77.02
84267;BME280;74414;51.098;13.716;2024-03-08T01:14:42;100505.19;;;-1.06;77.52
84267;BME280;74414;51.098;13.716;2024-03-08T01:17:07;100503.81;;;-0.98;77.28
84267;BME280;74414;51.098;13.716;2024-03-08T01:19:35;100504.88;;;-0.94;77.18
84267;BME280;74414;51.098;13.716;2024-03-08T01:22:00;100501.31;;;-0.89;77.08
84267;BME280;74414;51.098;13.716;2024-03-08T01:24:25;100493.13;;;-0.84;76.97
84267;BME280;74414;51.098;13.716;2024-03-08T01:26:51;100494.25;;;-0.91;77.22
84267;BME280;74414;51.098;13.716;2024-03-08T01:29:16;100492.66;;;-0.97;77.68
84267;BME280;74414;51.098;13.716;2024-03-08T01:31:41;100495.41;;;-0.97;77.75
84267;BME280;74414;51.098;13.716;2024-03-08T01:34:07;100488.56;;;-0.89;77.98
84267;BME280;74414;51.098;13.716;2024-03-08T01:36:32;100482.88;;;-0.98;77.70
84267;BME280;74414;51.098;13.716;2024-03-08T01:38:57;100477.47;;;-1.03;77.66
84267;BME280;74414;51.098;13.716;2024-03-08T01:41:23;100469.59;;;-1.04;77.77
84267;BME280;74414;51.098;13.716;2024-03-08T01:43:48;100475.31;;;-1.06;78.27
84267;BME280;74414;51.098;13.716;2024-03-08T01:46:17;100463.31;;;-1.00;78.21
84267;BME280;74414;51.098;13.716;2024-03-08T01:48:44;100464.91;;;-0.94;78.19
84267;BME280;74414;51.098;13.716;2024-03-08T01:51:11;100455.41;;;-0.96;78.29
84267;BME280;74414;51.098;13.716;2024-03-08T01:53:37;100449.72;;;-0.95;77.84
84267;BME280;74414;51.098;13.716;2024-03-08T01:56:04;100460.59;;;-0.95;77.82
84267;BME280;74414;51.098;13.716;2024-03-08T01:58:31;100448.66;;;-1.04;77.94
84267;BME280;74414;51.098;13.716;2024-03-08T02:00:59;100450.59;;;-1.09;78.17
84267;BME280;74414;51.098;13.716;2024-03-08T02:03:24;100449.31;;;-1.22;78.31
84267;BME280;74414;51.098;13.716;2024-03-08T02:05:50;100445.53;;;-1.31;78.31
84267;BME280;74414;51.098;13.716;2024-03-08T02:08:17;100442.28;;;-1.33;78.93
84267;BME280;74414;51.098;13.716;2024-03-08T02:13:16;100448.25;;;-1.26;79.09
84267;BME280;74414;51.098;13.716;2024-03-08T02:15:58;100447.72;;;-1.33;79.15
84267;BME280;74414;51.098;13.716;2024-03-08T02:18:28;100442.84;;;-1.36;79.55
84267;BME280;74414;51.098;13.716;2024-03-08T02:20:55;100445.56;;;-1.36;79.50
84267;BME280;74414;51.098;13.716;2024-03-08T02:23:21;100451.47;;;-1.19;79.64
84267;BME280;74414;51.098;13.716;2024-03-08T02:25:47;100435.69;;;-1.17;79.16
84267;BME280;74414;51.098;13.716;2024-03-08T02:28:14;100428.56;;;-1.08;78.74
84267;BME280;74414;51.098;13.716;2024-03-08T02:30:40;100437.31;;;-1.16;78.44
84267;BME280;74414;51.098;13.716;2024-03-08T02:33:07;100429.75;;;-1.24;78.70
84267;BME280;74414;51.098;13.716;2024-03-08T02:35:35;100433.31;;;-1.28;78.87
84267;BME280;74414;51.098;13.716;2024-03-08T02:38:02;100431.41;;;-1.33;78.72
84267;BME280;74414;51.098;13.716;2024-03-08T02:40:29;100421.94;;;-1.35;79.10
84267;BME280;74414;51.098;13.716;2024-03-08T02:42:54;100420.03;;;-1.35;79.46
84267;BME280;74414;51.098;13.716;2024-03-08T02:45:20;100429.03;;;-1.44;79.23
84267;BME280;74414;51.098;13.716;2024-03-08T02:47:46;100429.63;;;-1.52;79.64
84267;BME280;74414;51.098;13.716;2024-03-08T02:50:11;100436.38;;;-1.50;79.94
84267;BME280;74414;51.098;13.716;2024-03-08T02:52:37;100423.91;;;-1.51;80.20
84267;BME280;74414;51.098;13.716;2024-03-08T02:55:03;100428.53;;;-1.51;80.14
84267;BME280;74414;51.098;13.716;2024-03-08T02:57:30;100426.06;;;-1.48;80.03
84267;BME280;74414;51.098;13.716;2024-03-08T02:59:55;100426.34;;;-1.49;79.84
84267;BME280;74414;51.098;13.716;2024-03-08T03:02:21;100425.22;;;-1.43;80.31
84267;BME280;74414;51.098;13.716;2024-03-08T03:04:48;100427.94;;;-1.48;80.09
84267;BME280;74414;51.098;13.716;2024-03-08T03:07:13;100419.03;;;-1.49;80.42
84267;BME280;74414;51.098;13.716;2024-03-08T03:09:39;100421.97;;;-1.50;80.17
84267;BME280;74414;51.098;13.716;2024-03-08T03:12:04;100421.19;;;-1.51;80.54
84267;BME280;74414;51.098;13.716;2024-03-08T03:14:30;100420.13;;;-1.60;80.21
84267;BME280;74414;51.098;13.716;2024-03-08T03:16:55;100416.09;;;-1.67;80.30
84267;BME280;74414;51.098;13.716;2024-03-08T03:19:20;100407.16;;;-1.68;80.76
84267;BME280;74414;51.098;13.716;2024-03-08T03:21:46;100414.72;;;-1.65;80.81
84267;BME280;74414;51.098;13.716;2024-03-08T03:24:12;100403.84;;;-1.60;81.05
84267;BME280;74414;51.098;13.716;2024-03-08T03:26:38;100408.47;;;-1.60;80.56
84267;BME280;74414;51.098;13.716;2024-03-08T03:29:07;100415.81;;;-1.66;80.56
84267;BME280;74414;51.098;13.716;2024-03-08T03:31:34;100415.28;;;-1.68;80.87
84267;BME280;74414;51.098;13.716;2024-03-08T03:34:00;100411.50;;;-1.72;81.02
84267;BME280;74414;51.098;13.716;2024-03-08T03:36:31;100410.44;;;-1.81;81.37
84267;BME280;74414;51.098;13.716;2024-03-08T03:38:56;100414.25;;;-1.92;81.57
84267;BME280;74414;51.098;13.716;2024-03-08T03:41:31;100408.88;;;-1.97;81.60
84267;BME280;74414;51.098;13.716;2024-03-08T03:43:57;100412.09;;;-2.00;81.77
84267;BME280;74414;51.098;13.716;2024-03-08T03:46:22;100405.88;;;-2.06;82.20
84267;BME280;74414;51.098;13.716;2024-03-08T03:48:48;100409.41;;;-2.10;82.16
84267;BME280;74414;51.098;13.716;2024-03-08T03:51:13;100411.31;;;-2.06;82.37
84267;BME280;74414;51.098;13.716;2024-03-08T03:53:40;100402.91;;;-2.09;82.86
84267;BME280;74414;51.098;13.716;2024-03-08T03:56:06;100406.97;;;-2.12;82.66
84267;BME280;74414;51.098;13.716;2024-03-08T03:58:32;100401.84;;;-2.13;82.93
84267;BME280;74414;51.098;13.716;2024-03-08T04:00:57;100404.00;;;-2.15;83.01
84267;BME280;74414;51.098;13.716;2024-03-08T04:03:23;100399.66;;;-2.11;83.20
84267;BME280;74414;51.098;13.716;2024-03-08T04:05:48;100403.72;;;-2.09;83.00
84267;BME280;74414;51.098;13.716;2024-03-08T04:08:14;100402.09;;;-2.05;83.11
84267;BME280;74414;51.098;13.716;2024-03-08T04:10:39;100396.38;;;-2.08;82.89
84267;BME280;74414;51.098;13.716;2024-03-08T04:13:07;100390.44;;;-2.15;82.77
84267;BME280;74414;51.098;13.716;2024-03-08T04:15:32;100392.63;;;-2.22;82.71
84267;BME280;74414;51.098;13.716;2024-03-08T04:17:58;100383.41;;;-2.26;82.90
84267;BME280;74414;51.098;13.716;2024-03-08T04:20:25;100388.84;;;-2.31;83.10
84267;BME280;74414;51.098;13.716;2024-03-08T04:22:50;100391.28;;;-2.35;82.99
84267;BME280;74414;51.098;13.716;2024-03-08T04:25:15;100390.50;;;-2.35;83.62
84267;BME280;74414;51.098;13.716;2024-03-08T04:27:41;100385.34;;;-2.42;83.51
84267;BME280;74414;51.098;13.716;2024-03-08T04:30:07;100392.66;;;-2.42;83.84
84267;BME280;74414;51.098;13.716;2024-03-08T04:32:33;100394.28;;;-2.46;83.99
84267;BME280;74414;51.098;13.716;2024-03-08T04:34:58;100394.56;;;-2.53;83.92
84267;BME280;74414;51.098;13.716;2024-03-08T04:37:26;100385.63;;;-2.58;83.96
84267;BME280;74414;51.098;13.716;2024-03-08T04:39:51;100383.72;;;-2.63;83.74
84267;BME280;74414;51.098;13.716;2024-03-08T04:42:16;100379.13;;;-2.62;83.80
84267;BME280;74414;51.098;13.716;2024-03-08T04:44:43;100385.34;;;-2.62;84.05
84267;BME280;74414;51.098;13.716;2024-03-08T04:47:08;100381.28;;;-2.64;84.11
84267;BME280;74414;51.098;13.716;2024-03-08T04:49:35;100391.31;;;-2.65;84.21
84267;BME280;74414;51.098;13.716;2024-03-08T04:52:04;100388.63;;;-2.70;84.26
84267;BME280;74414;51.098;13.716;2024-03-08T04:54:30;100391.03;;;-2.68;84.08
84267;BME280;74414;51.098;13.716;2024-03-08T04:56:56;100383.47;;;-2.66;84.51
84267;BME280;74414;51.098;13.716;2024-03-08T04:59:22;100382.38;;;-2.70;84.24
84267;BME280;74414;51.098;13.716;2024-03-08T05:01:47;100387.53;;;-2.74;84.70
84267;BME280;74414;51.098;13.716;2024-03-08T05:04:13;100382.09;;;-2.79;84.32
84267;BME280;74414;51.098;13.716;2024-03-08T05:06:38;100377.50;;;-2.79;84.25
84267;BME280;74414;51.098;13.716;2024-03-08T05:09:04;100375.34;;;-2.82;84.31
84267;BME280;74414;51.098;13.716;2024-03-08T05:11:47;100372.59;;;-2.87;84.44
84267;BME280;74414;51.098;13.716;2024-03-08T05:14:14;100377.47;;;-2.94;84.43
84267;BME280;74414;51.098;13.716;2024-03-08T05:16:46;100374.22;;;-2.96;84.39
84267;BME280;74414;51.098;13.716;2024-03-08T05:19:19;100375.56;;;-2.98;84.49
84267;BME280;74414;51.098;13.716;2024-03-08T05:21:45;100381.28;;;-3.00;84.67
84267;BME280;74414;51.098;13.716;2024-03-08T05:24:10;100369.09;;;-2.97;84.67
84267;BME280;74414;51.098;13.716;2024-03-08T05:26:36;100376.13;;;-3.01;84.48
84267;BME280;74414;51.098;13.716;2024-03-08T05:29:02;100367.47;;;-3.03;84.62
84267;BME280;74414;51.098;13.716;2024-03-08T05:31:28;100362.81;;;-3.03;84.62
84267;BME280;74414;51.098;13.716;2024-03-08T05:33:54;100366.63;;;-3.04;84.67
84267;BME280;74414;51.098;13.716;2024-03-08T05:36:21;100364.75;;;-2.98;85.03
84267;BME280;74414;51.098;13.716;2024-03-08T05:38:46;100373.69;;;-2.93;85.15
84267;BME280;74414;51.098;13.716;2024-03-08T05:41:12;100365.00;;;-2.95;85.17
84267;BME280;74414;51.098;13.716;2024-03-08T05:43:37;100371.78;;;-2.87;85.35
84267;BME280;74414;51.098;13.716;2024-03-08T05:46:03;100361.50;;;-2.85;85.21
84267;BME280;74414;51.098;13.716;2024-03-08T05:48:30;100365.03;;;-2.85;85.49
84267;BME280;74414;51.098;13.716;2024-03-08T05:50:57;100361.22;;;-2.79;85.34
84267;BME280;74414;51.098;13.716;2024-03-08T05:53:22;100363.94;;;-2.68;85.48
84267;BME280;74414;51.098;13.716;2024-03-08T05:55:48;100360.69;;;-2.60;85.47
84267;BME280;74414;51.098;13.716;2024-03-08T05:58:14;100366.09;;;-2.50;85.73
84267;BME280;74414;51.098;13.716;2024-03-08T06:00:40;100363.38;;;-2.45;85.76
84267;BME280;74414;51.098;13.716;2024-03-08T06:03:05;100363.63;;;-2.27;85.79
84267;BME280;74414;51.098;13.716;2024-03-08T06:05:30;100369.78;;;-1.91;85.21
84267;BME280;74414;51.098;13.716;2024-03-08T06:07:56;100364.41;;;-1.47;85.73
84267;BME280;74414;51.098;13.716;2024-03-08T06:10:21;100368.72;;;-0.98;85.62
84267;BME280;74414;51.098;13.716;2024-03-08T06:12:47;100375.38;;;-0.46;84.76
84267;BME280;74414;51.098;13.716;2024-03-08T06:15:12;100369.19;;;0.00;83.15
84267;BME280;74414;51.098;13.716;2024-03-08T06:17:41;100376.94;;;0.59;80.13
84267;BME280;74414;51.098;13.716;2024-03-08T06:20:07;100369.59;;;1.16;75.38
84267;BME280;74414;51.098;13.716;2024-03-08T06:22:39;100371.69;;;1.69;71.15
84267;BME280;74414;51.098;13.716;2024-03-08T06:25:07;100377.63;;;2.17;68.57
84267;BME280;74414;51.098;13.716;2024-03-08T06:27:32;100380.44;;;2.66;66.62
84267;BME280;74414;51.098;13.716;2024-03-08T06:29:59;100373.81;;;2.95;64.33
84267;BME280;74414;51.098;13.716;2024-03-08T06:32:24;100373.97;;;3.12;63.50
84267;BME280;74414;51.098;13.716;2024-03-08T06:34:50;100373.28;;;3.06;62.68
84267;BME280;74414;51.098;13.716;2024-03-08T06:37:16;100375.81;;;3.03;63.20
84267;BME280;74414;51.098;13.716;2024-03-08T06:39:50;100372.41;;;3.19;62.49
84267;BME280;74414;51.098;13.716;2024-03-08T06:42:20;100369.94;;;3.53;61.58
84267;BME280;74414;51.098;13.716;2024-03-08T06:44:45;100368.53;;;3.87;61.49
84267;BME280;74414;51.098;13.716;2024-03-08T06:47:15;100368.25;;;4.36;59.71
84267;BME280;74414;51.098;13.716;2024-03-08T06:49:44;100366.31;;;5.01;57.73
84267;BME280;74414;51.098;13.716;2024-03-08T06:52:10;100372.78;;;5.31;56.60
84267;BME280;74414;51.098;13.716;2024-03-08T06:54:36;100359.63;;;5.79;55.61
84267;BME280;74414;51.098;13.716;2024-03-08T06:57:03;100375.56;;;6.11;53.86
84267;BME280;74414;51.098;13.716;2024-03-08T06:59:28;100375.63;;;6.70;51.94
84267;BME280;74414;51.098;13.716;2024-03-08T07:01:54;100378.44;;;7.31;50.35
84267;BME280;74414;51.098;13.716;2024-03-08T07:04:19;100367.69;;;7.59;49.03
84267;BME280;74414;51.098;13.716;2024-03-08T07:06:47;100366.50;;;7.48;48.48
84267;BME280;74414;51.098;13.716;2024-03-08T07:09:16;100375.88;;;8.12;47.44
84267;BME280;74414;51.098;13.716;2024-03-08T07:11:44;100369.09;;;8.22;47.27
84267;BME280;74414;51.098;13.716;2024-03-08T07:14:09;100364.38;;;8.22;47.03
84267;BME280;74414;51.098;13.716;2024-03-08T07:16:34;100357.94;;;8.18;47.22
84267;BME280;74414;51.098;13.716;2024-03-08T07:19:05;100353.81;;;8.97;46.51
84267;BME280;74414;51.098;13.716;2024-03-08T07:21:30;100351.63;;;9.42;45.08
84267;BME280;74414;51.098;13.716;2024-03-08T07:23:56;100352.16;;;10.19;43.70
84267;BME280;74414;51.098;13.716;2024-03-08T07:26:42;100351.56;;;10.56;42.01
84267;BME280;74414;51.098;13.716;2024-03-08T07:29:08;100353.66;;;11.13;41.42
84267;BME280;74414;51.098;13.716;2024-03-08T07:31:33;100345.44;;;10.66;41.46
84267;BME280;74414;51.098;13.716;2024-03-08T07:34:27;100352.25;;;10.69;42.29
84267;BME280;74414;51.098;13.716;2024-03-08T07:36:53;100350.44;;;11.11;40.43
84267;BME280;74414;51.098;13.716;2024-03-08T07:39:18;100350.03;;;11.28;40.06
84267;BME280;74414;51.098;13.716;2024-03-08T07:41:44;100349.84;;;11.75;39.91
84267;BME280;74414;51.098;13.716;2024-03-08T07:44:09;100355.47;;;12.69;38.05
84267;BME280;74414;51.098;13.716;2024-03-08T07:46:35;100357.66;;;13.64;36.64
84267;BME280;74414;51.098;13.716;2024-03-08T07:49:01;100351.28;;;13.97;35.28
84267;BME280;74414;51.098;13.716;2024-03-08T07:51:28;100352.44;;;14.33;34.53
84267;BME280;74414;51.098;13.716;2024-03-08T07:53:53;100351.84;;;13.77;34.50
84267;BME280;74414;51.098;13.716;2024-03-08T07:56:18;100359.28;;;13.36;35.05
84267;BME280;74414;51.098;13.716;2024-03-08T07:58:46;100350.78;;;12.99;35.50
84267;BME280;74414;51.098;13.716;2024-03-08T08:01:18;100348.66;;;13.15;36.20
84267;BME280;74414;51.098;13.716;2024-03-08T08:03:43;100346.53;;;13.35;35.21
84267;BME280;74414;51.098;13.716;2024-03-08T08:06:09;100345.06;;;13.44;35.18
84267;BME280;74414;51.098;13.716;2024-03-08T08:08:35;100341.03;;;13.38;35.20
84267;BME280;74414;51.098;13.716;2024-03-08T08:11:02;100337.44;;;13.08;35.80
84267;BME280;74414;51.098;13.716;2024-03-08T08:13:28;100339.84;;;12.84;35.99
84267;BME280;74414;51.098;13.716;2024-03-08T08:15:57;100340.88;;;11.43;39.14
84267;BME280;74414;51.098;13.716;2024-03-08T08:18:22;100331.41;;;12.28;37.90
84267;BME280;74414;51.098;13.716;2024-03-08T08:20:50;100327.44;;;12.77;36.95
84267;BME280;74414;51.098;13.716;2024-03-08T08:23:15;100322.78;;;12.85;36.72
84267;BME280;74414;51.098;13.716;2024-03-08T08:25:41;100319.91;;;13.04;35.88
84267;BME280;74414;51.098;13.716;2024-03-08T08:28:06;100318.13;;;13.52;36.13
84267;BME280;74414;51.098;13.716;2024-03-08T08:30:32;100321.91;;;13.33;35.44
84267;BME280;74414;51.098;13.716;2024-03-08T08:32:58;100310.91;;;12.62;36.91
84267;BME280;74414;51.098;13.716;2024-03-08T08:35:26;100314.16;;;12.41;38.18
84267;BME280;74414;51.098;13.716;2024-03-08T08:37:51;100313.78;;;13.88;35.87
84267;BME280;74414;51.098;13.716;2024-03-08T08:40:16;100313.66;;;14.57;34.25
84267;BME280;74414;51.098;13.716;2024-03-08T08:42:42;100315.97;;;16.03;32.26
84267;BME280;74414;51.098;13.716;2024-03-08T08:45:08;100310.19;;;15.43;31.78
84267;BME280;74414;51.098;13.716;2024-03-08T08:47:37;100305.44;;;14.28;33.58
84267;BME280;74414;51.098;13.716;2024-03-08T08:50:03;100295.31;;;14.09;33.95
84267;BME280;74414;51.098;13.716;2024-03-08T08:52:32;100298.31;;;13.53;34.77
84267;BME280;74414;51.098;13.716;2024-03-08T08:54:58;100289.34;;;14.58;33.41
84267;BME280;74414;51.098;13.716;2024-03-08T08:57:23;100291.84;;;14.23;33.07
84267;BME280;74414;51.098;13.716;2024-03-08T08:59:49;100286.34;;;15.60;32.05
84267;BME280;74414;51.098;13.716;2024-03-08T09:02:15;100278.59;;;14.53;32.79
84267;BME280;74414;51.098;13.716;2024-03-08T09:04:42;100280.09;;;14.43;33.42
84267;BME280;74414;51.098;13.716;2024-03-08T09:07:07;100284.75;;;15.62;31.76
84267;BME280;74414;51.098;13.716;2024-03-08T09:09:33;100283.25;;;16.21;30.89
84267;BME280;74414;51.098;13.716;2024-03-08T09:11:58;100287.91;;;17.30;29.49
84267;BME280;74414;51.098;13.716;2024-03-08T09:14:24;100286.47;;;18.38;27.88
84267;BME280;74414;51.098;13.716;2024-03-08T09:16:51;100282.09;;;19.52;26.79
84267;BME280;74414;51.098;13.716;2024-03-08T09:19:16;100278.31;;;19.92;25.94
84267;BME280;74414;51.098;13.716;2024-03-08T09:21:42;100282.09;;;21.05;24.35
84267;BME280;74414;51.098;13.716;2024-03-08T09:24:08;100277.69;;;20.35;24.83
84267;BME280;74414;51.098;13.716;2024-03-08T09:26:33;100267.34;;;18.26;26.97
84267;BME280;74414;51.098;13.716;2024-03-08T09:28:59;100262.06;;;19.17;26.48
84267;BME280;74414;51.098;13.716;2024-03-08T09:31:25;100258.19;;;17.64;27.52
84267;BME280;74414;51.098;13.716;2024-03-08T09:33:51;100262.31;;;17.24;28.31
84267;BME280;74414;51.098;13.716;2024-03-08T09:36:17;100255.25;;;15.68;30.24
84267;BME280;74414;51.098;13.716;2024-03-08T09:38:43;100255.28;;;16.77;30.26
84267;BME280;74414;51.098;13.716;2024-03-08T09:41:08;100248.41;;;17.86;27.52
84267;BME280;74414;51.098;13.716;2024-03-08T09:43:35;100247.72;;;16.46;29.15
84267;BME280;74414;51.098;13.716;2024-03-08T09:46:03;100246.34;;;17.24;28.50
84267;BME280;74414;51.098;13.716;2024-03-08T09:48:28;100244.66;;;17.38;28.04
84267;BME280;74414;51.098;13.716;2024-03-08T09:50:54;100239.94;;;18.48;26.70
84267;BME280;74414;51.098;13.716;2024-03-08T09:53:22;100242.19;;;19.00;26.66
84267;BME280;74414;51.098;13.716;2024-03-08T09:55:47;100238.53;;;19.07;25.57
84267;BME280;74414;51.098;13.716;2024-03-08T09:58:15;100245.25;;;20.53;24.38
84267;BME280;74414;51.098;13.716;2024-03-08T10:00:43;100240.66;;;20.63;24.18
84267;BME280;74414;51.098;13.716;2024-03-08T10:03:08;100235.56;;;20.05;24.30
84267;BME280;74414;51.098;13.716;2024-03-08T10:05:34;100229.75;;;20.15;23.98
84267;BME280;74414;51.098;13.716;2024-03-08T10:08:00;100228.88;;;18.27;26.08
84267;BME280;74414;51.098;13.716;2024-03-08T10:10:25;100221.78;;;18.59;25.51
84267;BME280;74414;51.098;13.716;2024-03-08T10:12:51;100215.00;;;19.28;25.39
84267;BME280;74414;51.098;13.716;2024-03-08T10:15:17;100218.91;;;18.26;26.17
84267;BME280;74414;51.098;13.716;2024-03-08T10:17:42;100224.94;;;18.24;26.19
84267;BME280;74414;51.098;13.716;2024-03-08T10:20:16;100217.22;;;19.43;25.72
84267;BME280;74414;51.098;13.716;2024-03-08T10:22:42;100217.09;;;20.53;23.46
84267;BME280;74414;51.098;13.716;2024-03-08T10:25:11;100215.38;;;21.02;22.67
84267;BME280;74414;51.098;13.716;2024-03-08T10:27:41;100209.22;;;20.45;23.54
84267;BME280;74414;51.098;13.716;2024-03-08T10:30:15;100203.22;;;20.43;24.24
84267;BME280;74414;51.098;13.716;2024-03-08T10:32:41;100200.69;;;18.00;25.87
84267;BME280;74414;51.098;13.716;2024-03-08T10:35:09;100198.84;;;17.03;27.46
84267;BME280;74414;51.098;13.716;2024-03-08T10:37:47;100190.22;;;16.24;28.84
84267;BME280;74414;51.098;13.716;2024-03-08T10:40:17;100172.59;;;15.28;30.44
84267;BME280;74414;51.098;13.716;2024-03-08T10:42:55;100187.84;;;15.52;30.36
84267;BME280;74414;51.098;13.716;2024-03-08T10:45:34;100178.28;;;15.78;30.13
84267;BME280;74414;51.098;13.716;2024-03-08T10:50:50;100192.72;;;18.43;26.87
84267;BME280;74414;51.098;13.716;2024-03-08T10:53:18;100183.03;;;18.84;25.74
84267;BME280;74414;51.098;13.716;2024-03-08T10:55:46;100183.56;;;18.72;26.60
84267;BME280;74414;51.098;13.716;2024-03-08T10:58:12;100184.47;;;19.60;24.65
84267;BME280;74414;51.098;13.716;2024-03-08T11:00:38;100180.09;;;19.59;25.95
84267;BME280;74414;51.098;13.716;2024-03-08T11:03:04;100182.78;;;17.87;26.97
84267;BME280;74414;51.098;13.716;2024-03-08T11:05:40;100165.47;;;19.11;25.92
84267;BME280;74414;51.098;13.716;2024-03-08T11:10:58;100177.38;;;20.71;23.74
84267;BME280;74414;51.098;13.716;2024-03-08T11:13:40;100165.91;;;17.94;27.27
84267;BME280;74414;51.098;13.716;2024-03-08T11:18:59;100154.19;;;20.17;25.00
84267;BME280;74414;51.098;13.716;2024-03-08T11:21:32;100157.41;;;20.42;23.74
84267;BME280;74414;51.098;13.716;2024-03-08T11:24:14;100146.94;;;19.97;25.39
84267;BME280;74414;51.098;13.716;2024-03-08T11:26:40;100139.56;;;21.79;23.19
84267;BME280;74414;51.098;13.716;2024-03-08T11:32:10;100122.97;;;18.04;26.55
84267;BME280;74414;51.098;13.716;2024-03-08T11:34:36;100125.41;;;18.02;27.02
84267;BME280;74414;51.098;13.716;2024-03-08T11:37:05;100119.72;;;18.09;27.38
84267;BME280;74414;51.098;13.716;2024-03-08T11:39:31;100122.69;;;18.69;26.24
84267;BME280;74414;51.098;13.716;2024-03-08T11:41:57;100115.41;;;18.01;27.28
84267;BME280;74414;51.098;13.716;2024-03-08T11:44:26;100117.56;;;18.94;26.16
84267;BME280;74414;51.098;13.716;2024-03-08T11:46:52;100100.47;;;19.42;25.03
84267;BME280;74414;51.098;13.716;2024-03-08T11:49:19;100105.22;;;19.72;24.98
84267;BME280;74414;51.098;13.716;2024-03-08T11:51:44;100102.94;;;20.10;24.45
84267;BME280;74414;51.098;13.716;2024-03-08T11:54:12;100096.97;;;19.35;25.01
84267;BME280;74414;51.098;13.716;2024-03-08T11:56:40;100104.41;;;17.76;26.98
84267;BME280;74414;51.098;13.716;2024-03-08T11:59:11;100091.22;;;19.15;25.68
84267;BME280;74414;51.098;13.716;2024-03-08T12:01:38;100097.13;;;19.21;25.01
84267;BME280;74414;51.098;13.716;2024-03-08T12:04:04;100090.97;;;18.42;26.11
84267;BME280;74414;51.098;13.716;2024-03-08T12:06:40;100074.50;;;18.07;26.38
84267;BME280;74414;51.098;13.716;2024-03-08T12:09:10;100076.91;;;19.59;25.53
84267;BME280;74414;51.098;13.716;2024-03-08T12:11:36;100076.34;;;20.14;24.17
84267;BME280;74414;51.098;13.716;2024-03-08T12:14:02;100074.72;;;19.70;24.79
84267;BME280;74414;51.098;13.716;2024-03-08T12:16:27;100077.63;;;20.72;23.56
84267;BME280;74414;51.098;13.716;2024-03-08T12:18:53;100075.59;;;20.92;23.47
84267;BME280;74414;51.098;13.716;2024-03-08T12:21:19;100062.44;;;18.51;25.39
84267;BME280;74414;51.098;13.716;2024-03-08T12:24:05;100066.16;;;19.54;24.77
84267;BME280;74414;51.098;13.716;2024-03-08T12:26:35;100062.63;;;20.16;24.72
84267;BME280;74414;51.098;13.716;2024-03-08T12:29:15;100063.63;;;20.68;23.69
84267;BME280;74414;51.098;13.716;2024-03-08T12:31:42;100054.88;;;18.44;26.07
84267;BME280;74414;51.098;13.716;2024-03-08T12:34:07;100055.09;;;18.23;26.99
84267;BME280;74414;51.098;13.716;2024-03-08T12:36:35;100040.84;;;18.78;26.28
84267;BME280;74414;51.098;13.716;2024-03-08T12:39:01;100047.16;;;18.52;26.27
84267;BME280;74414;51.098;13.716;2024-03-08T12:41:29;100039.09;;;19.64;25.54
84267;BME280;74414;51.098;13.716;2024-03-08T12:43:54;100044.66;;;20.72;24.21
84267;BME280;74414;51.098;13.716;2024-03-08T12:46:21;100027.78;;;19.67;25.44
84267;BME280;74414;51.098;13.716;2024-03-08T12:48:47;100025.31;;;18.70;26.47
84267;BME280;74414;51.098;13.716;2024-03-08T12:51:13;100016.41;;;17.70;27.96
84267;BME280;74414;51.098;13.716;2024-03-08T12:53:39;100013.19;;;17.75;28.17